메인 페이지
METAR-TAF:

METAR-TAF

공항 :

퀴라소, 네덜란드령 안틸레스

위도: 12-12N, 경도: 068-58W, 고도: 9m

현재 날씨관측

예보는 51분 전, 02:00시(UTC)에 발표되었습니다.
12kt
온도 27°C
습도 79%
기압 1015 hPa
시정 10km 이상

METAR: TNCC 130200Z AUTO 10012KT 9999 NSC 27/23 Q1015 NOSIG

시각: 22:51 (02:51 UTC)

예보

예보는 5 시간 6분 전, 21:45시(UTC)에 발표되었습니다.
예보 대상 시간: 13일 00시부터 13일 24시까지 (UTC)
14kt
시정 10km 이상
고도 1800ft 상공 구름 조금
일시적
13일 06시부터 13일 14시까지 (UTC)
고도 1500ft 상공 구름 많음
확률 30% :
일시적
13일 07시부터 13일 12시까지 (UTC)
동남동15kt, 순간 최대 풍속 26kt
시정: 7000m
약한소나기

TAF: TNCC 122145Z 1300/1324 10014KT 9999 FEW018 TEMPO 1306/1314 BKN015 PROB30 TEMPO 1307/1312 11015G26KT 7000 -SHRA

4,000개 이상의 공항 관측 자료 및 예보 (METAR 및 TAF 보고).

지도상에서 검색 가능한 기상관측소가 노란 점과 빨간 점으로 표시되어 있습니다.

기상관측소 명을 보려면 표시 위로 마우스를 이동하세요.

날씨 관측과 예보를 보려면 클릭하세요.

지도 변경 : 확대하려면 엑스 표시가 있는 녹색 버튼, 축소하려면 빼기 표시가 있는 녹색 버튼, 다음 페이지의 지도를 보려면 녹색 화살표를 클릭하세요.


METAR-TAF: